Long Beach, CA (90804)

5:39 PM PDT on July 27, 2016 (GMT -0700)
Belmont Heights | | Change Station

Elev 56 ft 33.77 °N, 118.14 °W | Updated 20 seconds ago

Clear
Clear
86.4 °F
Feels Like 85 °F
N
2.7
Wind Variable Wind from NNW
Gusts 4.9 mph

Today
High -- | Low -- °F
--% Chance of Precip.
Yesterday
High -- | Low -- °F
Precip. -- in
Pressure 29.86 in
Visibility 10.0 miles
Clouds Clear
Heat Index 85 °F
Dew Point 57 °F
Humidity 37%
Rainfall 0.00 in
Snow Depth Not available.
6:01 AM 7:56 PM
Last Quarter, 38% visible
METAR KLGB 272353Z 28009KT 10SM CLR 31/13 A2986 RMK AO2 SLP112 T03060133 10322 20283 56011
Pressure 29.86 in
Visibility 10.0 miles
Clouds Clear
Heat Index 85 °F
Dew Point 57 °F
Humidity 37%
Rainfall 0.00 in
Snow Depth Not available.
6:01 AM 7:56 PM
Last Quarter, 38% visible
METAR KLGB 272353Z 28009KT 10SM CLR 31/13 A2986 RMK AO2 SLP112 T03060133 10322 20283 56011

10-Day Weather Forecast

Almanac

Astronomy

Jul. 27, 2016 Rise Set
Actual Time
Civil Twilight
Nautical Twilight
Astronomical Twilight
Moon
Length of Visible Light
Length of Day
Tomorrow will be .
, % of the Moon is Illuminated

Today's Extremes

State Highs State Lows

Community

WunderPhotos

Upload Photos

1,927,978 photos uploaded!

WunderBlog® & News

Nearby

Air Quality

  Air Quality AQ Index Pollutant
Not available.

Snow Depth

Station Depth Elevation

Earthquake Activity

City Distance Mag. Time & Date
Minimum magnitude displayed is 2.5.

Coastal Water Temperatures

Place Temperature

Stations

Nearby Weather Stations

Station Location Temp. Windchill Dew Point Humidity Wind Precip. Elev Updated Type
                   

Watches & Warnings

There are currently no watches in effect.